sensor_id;sensor_type;location;lat;lon;timestamp;P1;durP1;ratioP1;P2;durP2;ratioP2
2305;SDS011;1161;51.922;8.896;2023-02-22T00:00:09;70.07;;;22.07;;
2305;SDS011;1161;51.922;8.896;2023-02-22T00:02:47;46.33;;;18.10;;
2305;SDS011;1161;51.922;8.896;2023-02-22T00:05:14;53.70;;;19.90;;
2305;SDS011;1161;51.922;8.896;2023-02-22T00:07:45;47.77;;;18.67;;
2305;SDS011;1161;51.922;8.896;2023-02-22T00:10:13;71.33;;;18.70;;
2305;SDS011;1161;51.922;8.896;2023-02-22T00:12:45;54.30;;;17.40;;
2305;SDS011;1161;51.922;8.896;2023-02-22T00:15:13;45.03;;;18.97;;
2305;SDS011;1161;51.922;8.896;2023-02-22T00:17:40;59.07;;;19.67;;
2305;SDS011;1161;51.922;8.896;2023-02-22T00:20:08;59.87;;;19.73;;
2305;SDS011;1161;51.922;8.896;2023-02-22T00:22:38;57.60;;;19.47;;
2305;SDS011;1161;51.922;8.896;2023-02-22T00:25:07;55.40;;;21.37;;
2305;SDS011;1161;51.922;8.896;2023-02-22T00:27:33;56.97;;;23.30;;
2305;SDS011;1161;51.922;8.896;2023-02-22T00:30:00;51.70;;;18.87;;
2305;SDS011;1161;51.922;8.896;2023-02-22T00:32:27;50.47;;;18.40;;
2305;SDS011;1161;51.922;8.896;2023-02-22T00:34:54;57.63;;;20.07;;
2305;SDS011;1161;51.922;8.896;2023-02-22T00:37:20;59.13;;;21.90;;
2305;SDS011;1161;51.922;8.896;2023-02-22T00:39:47;53.13;;;19.57;;
2305;SDS011;1161;51.922;8.896;2023-02-22T00:42:16;47.03;;;19.60;;
2305;SDS011;1161;51.922;8.896;2023-02-22T00:44:43;58.40;;;20.90;;
2305;SDS011;1161;51.922;8.896;2023-02-22T00:47:11;62.60;;;21.40;;
2305;SDS011;1161;51.922;8.896;2023-02-22T00:49:37;59.93;;;23.80;;
2305;SDS011;1161;51.922;8.896;2023-02-22T00:52:04;66.13;;;23.17;;
2305;SDS011;1161;51.922;8.896;2023-02-22T00:54:31;85.67;;;23.97;;
2305;SDS011;1161;51.922;8.896;2023-02-22T00:56:58;52.70;;;23.23;;
2305;SDS011;1161;51.922;8.896;2023-02-22T00:59:26;74.67;;;22.20;;
2305;SDS011;1161;51.922;8.896;2023-02-22T01:01:52;57.53;;;22.70;;
2305;SDS011;1161;51.922;8.896;2023-02-22T01:04:19;66.13;;;23.40;;
2305;SDS011;1161;51.922;8.896;2023-02-22T01:06:45;69.13;;;22.97;;
2305;SDS011;1161;51.922;8.896;2023-02-22T01:09:12;58.90;;;20.50;;
2305;SDS011;1161;51.922;8.896;2023-02-22T01:11:39;67.40;;;22.33;;
2305;SDS011;1161;51.922;8.896;2023-02-22T01:14:05;69.13;;;23.07;;
2305;SDS011;1161;51.922;8.896;2023-02-22T01:16:35;64.83;;;24.17;;
2305;SDS011;1161;51.922;8.896;2023-02-22T01:19:02;75.97;;;25.00;;
2305;SDS011;1161;51.922;8.896;2023-02-22T01:21:30;60.57;;;21.17;;
2305;SDS011;1161;51.922;8.896;2023-02-22T01:23:57;55.73;;;23.07;;
2305;SDS011;1161;51.922;8.896;2023-02-22T01:26:23;86.50;;;23.77;;
2305;SDS011;1161;51.922;8.896;2023-02-22T01:28:50;67.70;;;24.40;;
2305;SDS011;1161;51.922;8.896;2023-02-22T01:31:17;79.63;;;22.70;;
2305;SDS011;1161;51.922;8.896;2023-02-22T01:33:45;59.10;;;21.30;;
2305;SDS011;1161;51.922;8.896;2023-02-22T01:36:11;67.80;;;22.30;;
2305;SDS011;1161;51.922;8.896;2023-02-22T01:38:38;70.07;;;23.63;;
2305;SDS011;1161;51.922;8.896;2023-02-22T01:41:05;54.90;;;22.27;;
2305;SDS011;1161;51.922;8.896;2023-02-22T01:43:32;75.90;;;23.20;;
2305;SDS011;1161;51.922;8.896;2023-02-22T01:45:59;76.63;;;23.80;;
2305;SDS011;1161;51.922;8.896;2023-02-22T01:48:28;77.43;;;24.93;;
2305;SDS011;1161;51.922;8.896;2023-02-22T01:51:01;82.73;;;24.47;;
2305;SDS011;1161;51.922;8.896;2023-02-22T01:53:36;64.50;;;22.37;;
2305;SDS011;1161;51.922;8.896;2023-02-22T01:56:05;99.77;;;28.43;;
2305;SDS011;1161;51.922;8.896;2023-02-22T01:58:32;61.17;;;22.93;;
2305;SDS011;1161;51.922;8.896;2023-02-22T02:01:00;60.87;;;24.60;;
2305;SDS011;1161;51.922;8.896;2023-02-22T02:03:28;53.10;;;22.67;;
2305;SDS011;1161;51.922;8.896;2023-02-22T02:05:57;61.40;;;22.20;;
2305;SDS011;1161;51.922;8.896;2023-02-22T02:08:30;91.83;;;27.10;;
2305;SDS011;1161;51.922;8.896;2023-02-22T02:11:02;62.87;;;21.30;;
2305;SDS011;1161;51.922;8.896;2023-02-22T02:13:29;79.00;;;26.17;;
2305;SDS011;1161;51.922;8.896;2023-02-22T02:15:57;67.53;;;22.13;;
2305;SDS011;1161;51.922;8.896;2023-02-22T02:18:23;68.17;;;22.40;;
2305;SDS011;1161;51.922;8.896;2023-02-22T02:24:05;76.50;;;22.00;;
2305;SDS011;1161;51.922;8.896;2023-02-22T02:26:54;73.40;;;23.37;;
2305;SDS011;1161;51.922;8.896;2023-02-22T02:29:38;67.00;;;21.23;;
2305;SDS011;1161;51.922;8.896;2023-02-22T02:32:35;63.07;;;22.33;;
2305;SDS011;1161;51.922;8.896;2023-02-22T02:35:08;67.37;;;24.60;;
2305;SDS011;1161;51.922;8.896;2023-02-22T02:37:40;60.17;;;23.33;;
2305;SDS011;1161;51.922;8.896;2023-02-22T02:40:14;64.57;;;23.70;;
2305;SDS011;1161;51.922;8.896;2023-02-22T02:42:47;80.33;;;23.90;;
2305;SDS011;1161;51.922;8.896;2023-02-22T02:45:20;67.70;;;23.47;;
2305;SDS011;1161;51.922;8.896;2023-02-22T02:47:51;80.80;;;25.53;;
2305;SDS011;1161;51.922;8.896;2023-02-22T02:50:22;73.07;;;23.57;;
2305;SDS011;1161;51.922;8.896;2023-02-22T02:52:50;70.80;;;23.70;;
2305;SDS011;1161;51.922;8.896;2023-02-22T02:55:19;62.87;;;23.50;;
2305;SDS011;1161;51.922;8.896;2023-02-22T02:57:45;76.40;;;23.50;;
2305;SDS011;1161;51.922;8.896;2023-02-22T03:00:13;85.50;;;27.43;;
2305;SDS011;1161;51.922;8.896;2023-02-22T03:02:51;92.83;;;27.83;;
2305;SDS011;1161;51.922;8.896;2023-02-22T03:05:29;63.77;;;24.57;;
2305;SDS011;1161;51.922;8.896;2023-02-22T03:08:08;91.33;;;26.37;;
2305;SDS011;1161;51.922;8.896;2023-02-22T03:10:44;99.40;;;30.70;;
2305;SDS011;1161;51.922;8.896;2023-02-22T03:13:14;93.73;;;28.07;;
2305;SDS011;1161;51.922;8.896;2023-02-22T03:15:49;73.27;;;27.30;;
2305;SDS011;1161;51.922;8.896;2023-02-22T03:18:19;66.83;;;27.50;;
2305;SDS011;1161;51.922;8.896;2023-02-22T03:20:54;84.13;;;29.73;;
2305;SDS011;1161;51.922;8.896;2023-02-22T03:23:25;91.03;;;29.90;;
2305;SDS011;1161;51.922;8.896;2023-02-22T03:25:55;98.83;;;30.67;;
2305;SDS011;1161;51.922;8.896;2023-02-22T03:28:25;72.00;;;28.77;;
2305;SDS011;1161;51.922;8.896;2023-02-22T03:30:53;79.13;;;29.23;;
2305;SDS011;1161;51.922;8.896;2023-02-22T03:33:28;88.00;;;29.43;;
2305;SDS011;1161;51.922;8.896;2023-02-22T03:36:03;85.50;;;32.23;;
2305;SDS011;1161;51.922;8.896;2023-02-22T03:38:32;109.07;;;34.07;;
2305;SDS011;1161;51.922;8.896;2023-02-22T03:41:02;101.23;;;33.50;;
2305;SDS011;1161;51.922;8.896;2023-02-22T03:43:30;102.17;;;33.47;;
2305;SDS011;1161;51.922;8.896;2023-02-22T03:46:07;102.10;;;33.07;;
2305;SDS011;1161;51.922;8.896;2023-02-22T03:48:38;93.77;;;31.97;;
2305;SDS011;1161;51.922;8.896;2023-02-22T03:51:09;103.43;;;33.70;;
2305;SDS011;1161;51.922;8.896;2023-02-22T03:53:39;93.83;;;32.73;;
2305;SDS011;1161;51.922;8.896;2023-02-22T03:56:07;92.70;;;31.20;;
2305;SDS011;1161;51.922;8.896;2023-02-22T03:58:35;87.67;;;37.37;;
2305;SDS011;1161;51.922;8.896;2023-02-22T04:01:02;106.43;;;34.43;;
2305;SDS011;1161;51.922;8.896;2023-02-22T04:03:32;91.83;;;34.63;;
2305;SDS011;1161;51.922;8.896;2023-02-22T04:06:07;108.00;;;34.10;;
2305;SDS011;1161;51.922;8.896;2023-02-22T04:08:35;104.40;;;35.27;;
2305;SDS011;1161;51.922;8.896;2023-02-22T04:11:02;106.57;;;34.67;;
2305;SDS011;1161;51.922;8.896;2023-02-22T04:13:35;110.57;;;35.17;;
2305;SDS011;1161;51.922;8.896;2023-02-22T04:16:02;98.60;;;31.60;;
2305;SDS011;1161;51.922;8.896;2023-02-22T04:18:29;85.00;;;33.27;;
2305;SDS011;1161;51.922;8.896;2023-02-22T04:20:56;112.27;;;36.87;;
2305;SDS011;1161;51.922;8.896;2023-02-22T04:23:24;91.57;;;32.13;;
2305;SDS011;1161;51.922;8.896;2023-02-22T04:26:11;98.23;;;33.83;;
2305;SDS011;1161;51.922;8.896;2023-02-22T04:28:41;91.27;;;33.43;;
2305;SDS011;1161;51.922;8.896;2023-02-22T04:31:08;101.23;;;35.27;;
2305;SDS011;1161;51.922;8.896;2023-02-22T04:33:37;87.87;;;31.23;;
2305;SDS011;1161;51.922;8.896;2023-02-22T04:36:04;90.70;;;32.30;;
2305;SDS011;1161;51.922;8.896;2023-02-22T04:38:33;111.73;;;33.63;;
2305;SDS011;1161;51.922;8.896;2023-02-22T04:41:00;102.63;;;36.10;;
2305;SDS011;1161;51.922;8.896;2023-02-22T04:43:28;92.27;;;35.67;;
2305;SDS011;1161;51.922;8.896;2023-02-22T04:45:55;102.23;;;38.00;;
2305;SDS011;1161;51.922;8.896;2023-02-22T04:48:22;124.87;;;36.37;;
2305;SDS011;1161;51.922;8.896;2023-02-22T04:50:50;114.17;;;36.27;;
2305;SDS011;1161;51.922;8.896;2023-02-22T04:53:20;127.13;;;39.70;;
2305;SDS011;1161;51.922;8.896;2023-02-22T04:55:48;110.93;;;35.93;;
2305;SDS011;1161;51.922;8.896;2023-02-22T04:58:15;141.20;;;40.67;;
2305;SDS011;1161;51.922;8.896;2023-02-22T05:00:42;115.17;;;42.57;;
2305;SDS011;1161;51.922;8.896;2023-02-22T05:03:12;138.30;;;40.03;;
2305;SDS011;1161;51.922;8.896;2023-02-22T05:05:40;151.47;;;44.63;;
2305;SDS011;1161;51.922;8.896;2023-02-22T05:08:08;115.37;;;37.03;;
2305;SDS011;1161;51.922;8.896;2023-02-22T05:10:36;108.60;;;37.17;;
2305;SDS011;1161;51.922;8.896;2023-02-22T05:13:04;99.40;;;32.30;;
2305;SDS011;1161;51.922;8.896;2023-02-22T05:15:31;114.13;;;37.53;;
2305;SDS011;1161;51.922;8.896;2023-02-22T05:17:59;130.03;;;38.33;;
2305;SDS011;1161;51.922;8.896;2023-02-22T05:20:26;120.27;;;39.13;;
2305;SDS011;1161;51.922;8.896;2023-02-22T05:22:55;117.60;;;34.60;;
2305;SDS011;1161;51.922;8.896;2023-02-22T05:25:22;117.47;;;37.00;;
2305;SDS011;1161;51.922;8.896;2023-02-22T05:27:57;102.07;;;38.03;;
2305;SDS011;1161;51.922;8.896;2023-02-22T05:30:27;142.63;;;42.67;;
2305;SDS011;1161;51.922;8.896;2023-02-22T05:32:59;123.77;;;39.53;;
2305;SDS011;1161;51.922;8.896;2023-02-22T05:35:27;115.53;;;35.00;;
2305;SDS011;1161;51.922;8.896;2023-02-22T05:37:57;129.17;;;38.50;;
2305;SDS011;1161;51.922;8.896;2023-02-22T05:40:26;136.67;;;40.87;;
2305;SDS011;1161;51.922;8.896;2023-02-22T05:42:54;128.77;;;43.03;;
2305;SDS011;1161;51.922;8.896;2023-02-22T05:45:23;110.77;;;37.27;;
2305;SDS011;1161;51.922;8.896;2023-02-22T05:47:53;103.83;;;36.50;;
2305;SDS011;1161;51.922;8.896;2023-02-22T05:50:20;145.20;;;41.97;;
2305;SDS011;1161;51.922;8.896;2023-02-22T05:52:49;126.33;;;39.40;;
2305;SDS011;1161;51.922;8.896;2023-02-22T05:55:17;108.40;;;38.63;;
2305;SDS011;1161;51.922;8.896;2023-02-22T05:57:46;110.97;;;41.33;;
2305;SDS011;1161;51.922;8.896;2023-02-22T06:00:15;111.63;;;38.30;;
2305;SDS011;1161;51.922;8.896;2023-02-22T06:02:43;142.03;;;41.93;;
2305;SDS011;1161;51.922;8.896;2023-02-22T06:05:12;131.80;;;40.80;;
2305;SDS011;1161;51.922;8.896;2023-02-22T06:07:40;130.57;;;41.50;;
2305;SDS011;1161;51.922;8.896;2023-02-22T06:10:07;132.23;;;41.07;;
2305;SDS011;1161;51.922;8.896;2023-02-22T06:12:34;125.37;;;38.10;;
2305;SDS011;1161;51.922;8.896;2023-02-22T06:15:00;145.70;;;43.63;;
2305;SDS011;1161;51.922;8.896;2023-02-22T06:17:27;112.27;;;39.67;;
2305;SDS011;1161;51.922;8.896;2023-02-22T06:19:55;131.90;;;43.60;;
2305;SDS011;1161;51.922;8.896;2023-02-22T06:22:24;116.90;;;38.20;;
2305;SDS011;1161;51.922;8.896;2023-02-22T06:24:51;116.10;;;41.27;;
2305;SDS011;1161;51.922;8.896;2023-02-22T06:27:20;136.33;;;42.27;;
2305;SDS011;1161;51.922;8.896;2023-02-22T06:29:48;108.57;;;36.93;;
2305;SDS011;1161;51.922;8.896;2023-02-22T06:32:17;135.23;;;45.90;;
2305;SDS011;1161;51.922;8.896;2023-02-22T06:34:44;146.17;;;42.93;;
2305;SDS011;1161;51.922;8.896;2023-02-22T06:37:13;122.60;;;42.27;;
2305;SDS011;1161;51.922;8.896;2023-02-22T06:39:42;119.57;;;39.77;;
2305;SDS011;1161;51.922;8.896;2023-02-22T06:42:09;149.07;;;42.83;;
2305;SDS011;1161;51.922;8.896;2023-02-22T06:44:39;148.40;;;43.80;;
2305;SDS011;1161;51.922;8.896;2023-02-22T06:47:06;147.43;;;44.77;;
2305;SDS011;1161;51.922;8.896;2023-02-22T06:49:33;112.47;;;40.27;;
2305;SDS011;1161;51.922;8.896;2023-02-22T06:52:00;126.97;;;40.73;;
2305;SDS011;1161;51.922;8.896;2023-02-22T06:54:30;104.33;;;40.83;;
2305;SDS011;1161;51.922;8.896;2023-02-22T06:56:59;120.33;;;39.63;;
2305;SDS011;1161;51.922;8.896;2023-02-22T06:59:26;120.30;;;36.77;;
2305;SDS011;1161;51.922;8.896;2023-02-22T07:01:53;152.13;;;42.77;;
2305;SDS011;1161;51.922;8.896;2023-02-22T07:04:21;156.60;;;45.50;;
2305;SDS011;1161;51.922;8.896;2023-02-22T07:06:48;120.73;;;45.20;;
2305;SDS011;1161;51.922;8.896;2023-02-22T07:09:16;143.13;;;44.87;;
2305;SDS011;1161;51.922;8.896;2023-02-22T07:11:43;122.27;;;40.57;;
2305;SDS011;1161;51.922;8.896;2023-02-22T07:14:12;121.60;;;41.07;;
2305;SDS011;1161;51.922;8.896;2023-02-22T07:16:38;133.07;;;43.23;;
2305;SDS011;1161;51.922;8.896;2023-02-22T07:19:05;113.83;;;41.27;;
2305;SDS011;1161;51.922;8.896;2023-02-22T07:21:34;119.07;;;40.70;;
2305;SDS011;1161;51.922;8.896;2023-02-22T07:24:01;119.63;;;40.50;;
2305;SDS011;1161;51.922;8.896;2023-02-22T07:26:28;113.23;;;40.10;;
2305;SDS011;1161;51.922;8.896;2023-02-22T07:28:56;100.83;;;36.83;;
2305;SDS011;1161;51.922;8.896;2023-02-22T07:31:25;136.30;;;41.93;;
2305;SDS011;1161;51.922;8.896;2023-02-22T07:33:53;132.10;;;41.10;;
2305;SDS011;1161;51.922;8.896;2023-02-22T07:36:19;125.27;;;41.10;;
2305;SDS011;1161;51.922;8.896;2023-02-22T07:38:46;103.13;;;35.53;;
2305;SDS011;1161;51.922;8.896;2023-02-22T07:41:14;96.43;;;35.13;;
2305;SDS011;1161;51.922;8.896;2023-02-22T07:43:40;101.50;;;37.73;;
2305;SDS011;1161;51.922;8.896;2023-02-22T07:46:08;111.80;;;34.17;;
2305;SDS011;1161;51.922;8.896;2023-02-22T07:48:36;112.40;;;35.93;;
2305;SDS011;1161;51.922;8.896;2023-02-22T07:51:04;130.40;;;38.10;;
2305;SDS011;1161;51.922;8.896;2023-02-22T07:53:32;117.70;;;40.40;;
2305;SDS011;1161;51.922;8.896;2023-02-22T07:56:00;118.50;;;41.30;;
2305;SDS011;1161;51.922;8.896;2023-02-22T07:58:28;116.30;;;40.70;;
2305;SDS011;1161;51.922;8.896;2023-02-22T08:00:55;88.70;;;35.80;;
2305;SDS011;1161;51.922;8.896;2023-02-22T08:03:23;100.60;;;35.83;;
2305;SDS011;1161;51.922;8.896;2023-02-22T08:05:53;120.10;;;39.30;;
2305;SDS011;1161;51.922;8.896;2023-02-22T08:08:21;122.93;;;41.73;;
2305;SDS011;1161;51.922;8.896;2023-02-22T08:10:48;112.73;;;39.90;;
2305;SDS011;1161;51.922;8.896;2023-02-22T08:13:16;101.43;;;35.27;;
2305;SDS011;1161;51.922;8.896;2023-02-22T08:15:44;115.13;;;39.00;;
2305;SDS011;1161;51.922;8.896;2023-02-22T08:18:12;109.77;;;37.03;;
2305;SDS011;1161;51.922;8.896;2023-02-22T08:20:41;108.63;;;39.40;;
2305;SDS011;1161;51.922;8.896;2023-02-22T08:23:11;93.50;;;37.83;;
2305;SDS011;1161;51.922;8.896;2023-02-22T08:25:38;116.33;;;38.53;;
2305;SDS011;1161;51.922;8.896;2023-02-22T08:28:06;107.73;;;35.10;;
2305;SDS011;1161;51.922;8.896;2023-02-22T08:30:34;103.77;;;40.93;;
2305;SDS011;1161;51.922;8.896;2023-02-22T08:33:02;103.10;;;37.50;;
2305;SDS011;1161;51.922;8.896;2023-02-22T08:35:29;100.67;;;36.63;;
2305;SDS011;1161;51.922;8.896;2023-02-22T08:37:57;108.03;;;35.07;;
2305;SDS011;1161;51.922;8.896;2023-02-22T08:40:26;90.10;;;36.20;;
2305;SDS011;1161;51.922;8.896;2023-02-22T08:42:55;93.53;;;34.70;;
2305;SDS011;1161;51.922;8.896;2023-02-22T08:45:22;93.50;;;35.30;;
2305;SDS011;1161;51.922;8.896;2023-02-22T08:47:49;97.13;;;37.87;;
2305;SDS011;1161;51.922;8.896;2023-02-22T08:50:18;89.23;;;29.87;;
2305;SDS011;1161;51.922;8.896;2023-02-22T08:52:48;81.30;;;30.10;;
2305;SDS011;1161;51.922;8.896;2023-02-22T08:55:17;77.33;;;31.17;;
2305;SDS011;1161;51.922;8.896;2023-02-22T08:57:45;77.67;;;28.97;;
2305;SDS011;1161;51.922;8.896;2023-02-22T09:00:13;85.30;;;29.97;;
2305;SDS011;1161;51.922;8.896;2023-02-22T09:02:40;79.67;;;30.07;;
2305;SDS011;1161;51.922;8.896;2023-02-22T09:05:07;79.53;;;30.50;;
2305;SDS011;1161;51.922;8.896;2023-02-22T09:07:34;69.67;;;30.20;;
2305;SDS011;1161;51.922;8.896;2023-02-22T09:10:01;75.93;;;30.17;;
2305;SDS011;1161;51.922;8.896;2023-02-22T09:12:28;77.43;;;32.23;;
2305;SDS011;1161;51.922;8.896;2023-02-22T09:14:56;86.53;;;29.20;;
2305;SDS011;1161;51.922;8.896;2023-02-22T09:17:31;70.10;;;29.23;;
2305;SDS011;1161;51.922;8.896;2023-02-22T09:20:01;66.93;;;28.47;;
2305;SDS011;1161;51.922;8.896;2023-02-22T09:22:28;79.20;;;35.13;;
2305;SDS011;1161;51.922;8.896;2023-02-22T09:24:54;76.17;;;29.73;;
2305;SDS011;1161;51.922;8.896;2023-02-22T09:27:21;73.27;;;30.97;;
2305;SDS011;1161;51.922;8.896;2023-02-22T09:29:48;70.77;;;26.60;;
2305;SDS011;1161;51.922;8.896;2023-02-22T09:32:16;69.77;;;29.67;;
2305;SDS011;1161;51.922;8.896;2023-02-22T09:34:43;56.47;;;25.77;;
2305;SDS011;1161;51.922;8.896;2023-02-22T09:37:11;80.83;;;28.27;;
2305;SDS011;1161;51.922;8.896;2023-02-22T09:39:37;76.27;;;27.60;;
2305;SDS011;1161;51.922;8.896;2023-02-22T09:42:07;64.60;;;25.63;;
2305;SDS011;1161;51.922;8.896;2023-02-22T09:44:37;72.00;;;27.63;;
2305;SDS011;1161;51.922;8.896;2023-02-22T09:47:07;60.20;;;26.30;;
2305;SDS011;1161;51.922;8.896;2023-02-22T09:49:40;54.50;;;25.80;;
2305;SDS011;1161;51.922;8.896;2023-02-22T09:52:13;61.40;;;25.20;;
2305;SDS011;1161;51.922;8.896;2023-02-22T09:54:44;52.00;;;23.43;;
2305;SDS011;1161;51.922;8.896;2023-02-22T09:57:21;76.93;;;26.97;;
2305;SDS011;1161;51.922;8.896;2023-02-22T09:59:54;59.13;;;23.67;;
2305;SDS011;1161;51.922;8.896;2023-02-22T10:02:25;58.47;;;21.77;;
2305;SDS011;1161;51.922;8.896;2023-02-22T10:04:56;58.20;;;23.10;;
2305;SDS011;1161;51.922;8.896;2023-02-22T10:07:27;47.90;;;22.53;;
2305;SDS011;1161;51.922;8.896;2023-02-22T10:09:56;55.27;;;24.07;;
2305;SDS011;1161;51.922;8.896;2023-02-22T10:12:24;55.93;;;21.57;;
2305;SDS011;1161;51.922;8.896;2023-02-22T10:15:06;54.17;;;20.90;;
2305;SDS011;1161;51.922;8.896;2023-02-22T10:17:44;57.60;;;24.80;;
2305;SDS011;1161;51.922;8.896;2023-02-22T10:20:19;46.03;;;20.63;;
2305;SDS011;1161;51.922;8.896;2023-02-22T10:22:53;54.23;;;23.60;;
2305;SDS011;1161;51.922;8.896;2023-02-22T10:25:24;52.77;;;22.10;;
2305;SDS011;1161;51.922;8.896;2023-02-22T10:27:54;44.53;;;21.23;;
2305;SDS011;1161;51.922;8.896;2023-02-22T10:30:23;46.77;;;22.10;;
2305;SDS011;1161;51.922;8.896;2023-02-22T10:32:51;47.70;;;20.80;;
2305;SDS011;1161;51.922;8.896;2023-02-22T10:35:23;42.93;;;19.53;;
2305;SDS011;1161;51.922;8.896;2023-02-22T10:37:51;38.23;;;20.27;;
2305;SDS011;1161;51.922;8.896;2023-02-22T10:40:20;47.83;;;21.67;;
2305;SDS011;1161;51.922;8.896;2023-02-22T10:42:56;39.13;;;19.60;;
2305;SDS011;1161;51.922;8.896;2023-02-22T10:45:26;36.03;;;18.03;;
2305;SDS011;1161;51.922;8.896;2023-02-22T10:47:54;42.87;;;19.40;;
2305;SDS011;1161;51.922;8.896;2023-02-22T10:50:24;40.73;;;18.20;;
2305;SDS011;1161;51.922;8.896;2023-02-22T10:52:52;47.27;;;19.60;;
2305;SDS011;1161;51.922;8.896;2023-02-22T10:55:19;38.63;;;17.93;;
2305;SDS011;1161;51.922;8.896;2023-02-22T10:57:46;43.37;;;20.93;;
2305;SDS011;1161;51.922;8.896;2023-02-22T11:00:16;36.30;;;18.40;;
2305;SDS011;1161;51.922;8.896;2023-02-22T11:02:49;40.77;;;18.93;;
2305;SDS011;1161;51.922;8.896;2023-02-22T11:05:26;42.80;;;18.23;;
2305;SDS011;1161;51.922;8.896;2023-02-22T11:11:00;42.53;;;17.47;;
2305;SDS011;1161;51.922;8.896;2023-02-22T11:13:31;34.53;;;17.20;;
2305;SDS011;1161;51.922;8.896;2023-02-22T11:15:59;40.30;;;18.47;;
2305;SDS011;1161;51.922;8.896;2023-02-22T11:18:28;29.30;;;16.27;;
2305;SDS011;1161;51.922;8.896;2023-02-22T11:21:02;33.17;;;16.80;;
2305;SDS011;1161;51.922;8.896;2023-02-22T11:23:32;39.97;;;16.70;;
2305;SDS011;1161;51.922;8.896;2023-02-22T11:26:00;36.07;;;20.20;;
2305;SDS011;1161;51.922;8.896;2023-02-22T11:28:29;32.40;;;17.20;;
2305;SDS011;1161;51.922;8.896;2023-02-22T11:30:57;42.70;;;20.20;;
2305;SDS011;1161;51.922;8.896;2023-02-22T11:33:34;36.53;;;17.23;;
2305;SDS011;1161;51.922;8.896;2023-02-22T11:36:03;38.47;;;18.23;;
2305;SDS011;1161;51.922;8.896;2023-02-22T11:38:34;32.90;;;15.77;;
2305;SDS011;1161;51.922;8.896;2023-02-22T11:41:06;36.60;;;16.53;;
2305;SDS011;1161;51.922;8.896;2023-02-22T11:43:38;39.00;;;18.37;;
2305;SDS011;1161;51.922;8.896;2023-02-22T11:46:06;34.97;;;16.43;;
2305;SDS011;1161;51.922;8.896;2023-02-22T11:48:38;52.10;;;17.90;;
2305;SDS011;1161;51.922;8.896;2023-02-22T11:51:13;47.20;;;17.50;;
2305;SDS011;1161;51.922;8.896;2023-02-22T11:56:35;30.53;;;16.93;;
2305;SDS011;1161;51.922;8.896;2023-02-22T11:59:09;34.93;;;16.23;;
2305;SDS011;1161;51.922;8.896;2023-02-22T12:01:42;28.50;;;16.70;;
2305;SDS011;1161;51.922;8.896;2023-02-22T12:04:21;32.00;;;16.00;;
2305;SDS011;1161;51.922;8.896;2023-02-22T12:07:01;40.97;;;18.57;;
2305;SDS011;1161;51.922;8.896;2023-02-22T12:09:43;30.83;;;16.40;;
2305;SDS011;1161;51.922;8.896;2023-02-22T12:12:16;31.30;;;16.97;;
2305;SDS011;1161;51.922;8.896;2023-02-22T12:14:49;35.70;;;16.70;;
2305;SDS011;1161;51.922;8.896;2023-02-22T12:17:21;33.87;;;15.67;;
2305;SDS011;1161;51.922;8.896;2023-02-22T12:19:56;29.70;;;15.90;;
2305;SDS011;1161;51.922;8.896;2023-02-22T12:22:29;32.17;;;17.00;;
2305;SDS011;1161;51.922;8.896;2023-02-22T12:24:59;33.43;;;17.40;;
2305;SDS011;1161;51.922;8.896;2023-02-22T12:27:32;37.00;;;19.33;;
2305;SDS011;1161;51.922;8.896;2023-02-22T12:30:04;32.30;;;14.23;;
2305;SDS011;1161;51.922;8.896;2023-02-22T12:32:33;31.23;;;16.20;;
2305;SDS011;1161;51.922;8.896;2023-02-22T12:35:08;25.67;;;15.73;;
2305;SDS011;1161;51.922;8.896;2023-02-22T12:37:42;26.83;;;15.63;;
2305;SDS011;1161;51.922;8.896;2023-02-22T12:40:17;25.47;;;14.53;;
2305;SDS011;1161;51.922;8.896;2023-02-22T12:42:49;22.50;;;12.97;;
2305;SDS011;1161;51.922;8.896;2023-02-22T12:45:23;18.33;;;12.77;;
2305;SDS011;1161;51.922;8.896;2023-02-22T12:47:54;25.53;;;15.63;;
2305;SDS011;1161;51.922;8.896;2023-02-22T12:50:26;25.90;;;13.50;;
2305;SDS011;1161;51.922;8.896;2023-02-22T12:53:00;23.27;;;13.77;;
2305;SDS011;1161;51.922;8.896;2023-02-22T12:55:34;31.80;;;16.00;;
2305;SDS011;1161;51.922;8.896;2023-02-22T12:58:06;22.33;;;13.33;;
2305;SDS011;1161;51.922;8.896;2023-02-22T13:00:36;33.40;;;15.93;;
2305;SDS011;1161;51.922;8.896;2023-02-22T13:03:16;35.23;;;13.20;;
2305;SDS011;1161;51.922;8.896;2023-02-22T13:05:50;23.93;;;13.17;;
2305;SDS011;1161;51.922;8.896;2023-02-22T13:08:24;22.90;;;13.13;;
2305;SDS011;1161;51.922;8.896;2023-02-22T13:11:07;26.40;;;13.33;;
2305;SDS011;1161;51.922;8.896;2023-02-22T13:13:41;26.87;;;13.53;;
2305;SDS011;1161;51.922;8.896;2023-02-22T13:16:20;23.63;;;13.80;;
2305;SDS011;1161;51.922;8.896;2023-02-22T13:18:54;22.87;;;11.17;;
2305;SDS011;1161;51.922;8.896;2023-02-22T13:21:29;26.73;;;13.43;;
2305;SDS011;1161;51.922;8.896;2023-02-22T13:24:05;25.53;;;12.40;;
2305;SDS011;1161;51.922;8.896;2023-02-22T13:26:37;25.17;;;12.53;;
2305;SDS011;1161;51.922;8.896;2023-02-22T13:29:07;20.97;;;14.27;;
2305;SDS011;1161;51.922;8.896;2023-02-22T13:31:40;25.57;;;13.87;;
2305;SDS011;1161;51.922;8.896;2023-02-22T13:34:20;24.27;;;12.40;;
2305;SDS011;1161;51.922;8.896;2023-02-22T13:37:06;25.03;;;13.07;;
2305;SDS011;1161;51.922;8.896;2023-02-22T13:40:08;22.67;;;12.20;;
2305;SDS011;1161;51.922;8.896;2023-02-22T13:42:48;23.47;;;14.43;;
2305;SDS011;1161;51.922;8.896;2023-02-22T13:48:29;22.37;;;12.77;;
2305;SDS011;1161;51.922;8.896;2023-02-22T13:51:06;18.60;;;10.83;;
2305;SDS011;1161;51.922;8.896;2023-02-22T13:53:38;19.17;;;12.57;;
2305;SDS011;1161;51.922;8.896;2023-02-22T13:56:09;19.10;;;9.90;;
2305;SDS011;1161;51.922;8.896;2023-02-22T14:01:35;18.60;;;11.60;;
2305;SDS011;1161;51.922;8.896;2023-02-22T14:04:20;19.00;;;11.27;;
2305;SDS011;1161;51.922;8.896;2023-02-22T14:06:48;14.40;;;10.13;;
2305;SDS011;1161;51.922;8.896;2023-02-22T14:09:15;22.53;;;10.90;;
2305;SDS011;1161;51.922;8.896;2023-02-22T14:11:48;23.77;;;10.50;;
2305;SDS011;1161;51.922;8.896;2023-02-22T14:14:21;21.90;;;10.10;;
2305;SDS011;1161;51.922;8.896;2023-02-22T14:19:41;16.50;;;8.30;;
2305;SDS011;1161;51.922;8.896;2023-02-22T14:22:08;15.63;;;8.70;;
2305;SDS011;1161;51.922;8.896;2023-02-22T14:24:40;12.87;;;9.07;;
2305;SDS011;1161;51.922;8.896;2023-02-22T14:27:10;17.63;;;9.23;;
2305;SDS011;1161;51.922;8.896;2023-02-22T14:29:37;15.43;;;9.47;;
2305;SDS011;1161;51.922;8.896;2023-02-22T14:32:04;19.53;;;9.13;;
2305;SDS011;1161;51.922;8.896;2023-02-22T14:34:46;13.40;;;7.47;;
2305;SDS011;1161;51.922;8.896;2023-02-22T14:37:15;13.67;;;9.03;;
2305;SDS011;1161;51.922;8.896;2023-02-22T14:39:44;10.53;;;8.43;;
2305;SDS011;1161;51.922;8.896;2023-02-22T14:42:13;11.07;;;7.67;;
2305;SDS011;1161;51.922;8.896;2023-02-22T14:44:47;14.50;;;8.23;;
2305;SDS011;1161;51.922;8.896;2023-02-22T14:47:20;14.70;;;10.00;;
2305;SDS011;1161;51.922;8.896;2023-02-22T14:49:52;14.20;;;9.27;;
2305;SDS011;1161;51.922;8.896;2023-02-22T14:52:23;14.43;;;7.20;;
2305;SDS011;1161;51.922;8.896;2023-02-22T14:54:55;15.23;;;9.00;;
2305;SDS011;1161;51.922;8.896;2023-02-22T14:57:29;17.90;;;9.60;;
2305;SDS011;1161;51.922;8.896;2023-02-22T15:00:05;14.17;;;9.73;;
2305;SDS011;1161;51.922;8.896;2023-02-22T15:02:44;16.73;;;9.17;;
2305;SDS011;1161;51.922;8.896;2023-02-22T15:05:12;13.70;;;7.90;;
2305;SDS011;1161;51.922;8.896;2023-02-22T15:07:47;11.60;;;8.63;;
2305;SDS011;1161;51.922;8.896;2023-02-22T15:10:18;13.77;;;8.00;;
2305;SDS011;1161;51.922;8.896;2023-02-22T15:12:53;12.67;;;8.70;;
2305;SDS011;1161;51.922;8.896;2023-02-22T15:15:33;10.60;;;7.70;;
2305;SDS011;1161;51.922;8.896;2023-02-22T15:18:01;14.90;;;7.50;;
2305;SDS011;1161;51.922;8.896;2023-02-22T15:20:31;11.20;;;9.00;;